createdAt,value
2022-11-28T00:01:35.892Z,99099.72
2022-11-28T00:04:04.902Z,99100.59
2022-11-28T00:06:32.370Z,99101.44
2022-11-28T00:09:00.780Z,99102.28
2022-11-28T00:11:28.049Z,99095.38
2022-11-28T00:13:55.619Z,99093.63
2022-11-28T00:16:24.271Z,99090.19
2022-11-28T00:18:53.853Z,99078.91
2022-11-28T00:21:21.917Z,99086.72
2022-11-28T00:23:49.752Z,99090.19
2022-11-28T00:26:25.072Z,99094.56
2022-11-28T00:28:52.770Z,99086.75
2022-11-28T00:31:24.344Z,99093.66
2022-11-28T00:33:51.749Z,99088.47
2022-11-28T00:36:20.209Z,99084.97
2022-11-28T00:38:47.424Z,99091.91
2022-11-28T00:41:18.370Z,99089.34
2022-11-28T00:43:46.965Z,99090.25
2022-11-28T00:46:16.558Z,99082.47
2022-11-28T00:48:44.363Z,99078.16
2022-11-28T00:51:19.791Z,99080.75
2022-11-28T00:53:49.413Z,99085.09
2022-11-28T00:56:21.318Z,99079.00
2022-11-28T00:58:51.320Z,99079.91
2022-11-28T01:01:27.331Z,99077.34
2022-11-28T01:03:58.684Z,99071.28
2022-11-28T01:06:31.741Z,99068.69
2022-11-28T01:09:02.404Z,99073.91
2022-11-28T01:11:30.381Z,99064.34
2022-11-28T01:14:00.127Z,99068.69
2022-11-28T01:16:28.610Z,99052.22
2022-11-28T01:18:55.535Z,99040.91
2022-11-28T01:21:23.934Z,99040.88
2022-11-28T01:23:51.147Z,99037.34
2022-11-28T01:26:26.750Z,99024.31
2022-11-28T01:28:54.900Z,99021.69
2022-11-28T01:31:28.761Z,99023.38
2022-11-28T01:33:57.106Z,99012.06
2022-11-28T01:36:25.232Z,99006.81
2022-11-28T01:38:53.512Z,99011.97
2022-11-28T01:41:25.761Z,99003.25
2022-11-28T01:44:29.917Z,99002.38
2022-11-28T01:46:57.037Z,99010.22
2022-11-28T01:49:36.055Z,99009.38
2022-11-28T01:52:14.713Z,99008.50
2022-11-28T01:54:46.199Z,98999.81
2022-11-28T01:57:21.791Z,98999.81
2022-11-28T02:00:05.466Z,98997.19
2022-11-28T02:02:46.358Z,98985.88
2022-11-28T02:05:14.617Z,98981.59
2022-11-28T02:07:44.093Z,98982.47
2022-11-28T02:10:18.034Z,98983.28
2022-11-28T02:13:11.274Z,98981.56
2022-11-28T02:15:55.774Z,98987.63
2022-11-28T02:18:58.550Z,98981.56
2022-11-28T02:21:54.181Z,98982.38
2022-11-28T02:24:43.270Z,98984.13
2022-11-28T02:27:28.575Z,98976.31
2022-11-28T02:30:10.726Z,98984.13
2022-11-28T02:32:55.449Z,98979.78
2022-11-28T02:35:39.261Z,98978.00
2022-11-28T02:38:48.876Z,98979.75
2022-11-28T02:41:34.823Z,98973.72
2022-11-28T02:44:14.485Z,98965.88
2022-11-28T02:46:56.672Z,98968.50
2022-11-28T02:49:34.080Z,98969.38
2022-11-28T02:52:09.801Z,98962.50
2022-11-28T02:54:39.494Z,98961.66
2022-11-28T02:57:08.243Z,98963.41
2022-11-28T02:59:38.186Z,98964.28
2022-11-28T03:02:33.992Z,98962.59
2022-11-28T03:05:42.466Z,98960.00
2022-11-28T03:08:36.543Z,98964.38
2022-11-28T03:11:44.450Z,98965.22
2022-11-28T03:14:59.725Z,98960.88
2022-11-28T03:18:11.492Z,98961.81
2022-11-28T03:21:31.939Z,98958.34
2022-11-28T03:24:07.110Z,98955.72
2022-11-28T03:26:54.571Z,98947.91
2022-11-28T03:29:33.597Z,98943.53
2022-11-28T03:32:06.965Z,98946.97
2022-11-28T03:34:41.348Z,98946.03
2022-11-28T03:37:20.699Z,98933.88
2022-11-28T03:39:57.618Z,98934.75
2022-11-28T03:42:29.836Z,98941.66
2022-11-28T03:45:24.344Z,98940.78
2022-11-28T03:48:00.983Z,98939.88
2022-11-28T03:50:40.626Z,98940.78
2022-11-28T03:53:20.575Z,98939.00
2022-11-28T03:56:20.040Z,98933.81
2022-11-28T03:59:00.466Z,98928.59
2022-11-28T04:01:41.286Z,98927.66
2022-11-28T04:04:25.155Z,98918.06
2022-11-28T04:07:28.392Z,98914.63
2022-11-28T04:10:34.727Z,98914.59
2022-11-28T04:13:11.085Z,98912.00
2022-11-28T04:15:59.548Z,98916.41
2022-11-28T04:19:01.467Z,98912.94
2022-11-28T04:21:43.679Z,98915.53
2022-11-28T04:24:23.360Z,98915.44
2022-11-28T04:27:05.492Z,98918.94
2022-11-28T04:29:39.448Z,98913.63
2022-11-28T04:32:11.649Z,98918.81
2022-11-28T04:34:45.320Z,98916.19
2022-11-28T04:37:15.995Z,98917.06
2022-11-28T04:39:48.552Z,98922.28
2022-11-28T04:42:23.798Z,98913.72
2022-11-28T04:45:12.762Z,98913.66
2022-11-28T04:47:40.049Z,98913.66
2022-11-28T04:50:08.189Z,98913.63
2022-11-28T04:53:09.522Z,98909.25
2022-11-28T04:55:49.078Z,98903.19
2022-11-28T04:58:26.146Z,98899.75
2022-11-28T05:00:56.043Z,98908.38
2022-11-28T05:03:28.656Z,98897.00
2022-11-28T05:05:55.657Z,98899.59
2022-11-28T05:08:22.953Z,98896.97
2022-11-28T05:10:49.963Z,98896.97
2022-11-28T05:13:17.146Z,98894.41
2022-11-28T05:15:44.022Z,98897.84
2022-11-28T05:18:11.154Z,98899.59
2022-11-28T05:20:39.254Z,98896.09
2022-11-28T05:23:07.015Z,98892.59
2022-11-28T05:25:33.880Z,98884.75
2022-11-28T05:28:01.181Z,98886.41
2022-11-28T05:30:28.129Z,98876.78
2022-11-28T05:32:55.750Z,98874.13
2022-11-28T05:35:23.465Z,98868.88
2022-11-28T05:37:50.510Z,98869.72
2022-11-28T05:40:17.445Z,98864.41
2022-11-28T05:42:45.220Z,98858.28
2022-11-28T05:45:12.040Z,98859.97
2022-11-28T05:47:39.202Z,98868.63
2022-11-28T05:50:08.093Z,98865.06
2022-11-28T05:52:35.761Z,98869.38
2022-11-28T05:55:02.673Z,98867.59
2022-11-28T05:57:32.132Z,98867.56
2022-11-28T05:59:59.047Z,98871.84
2022-11-28T06:02:26.242Z,98871.84
2022-11-28T06:04:53.255Z,98861.38
2022-11-28T06:07:20.492Z,98865.72
2022-11-28T06:09:47.626Z,98867.41
2022-11-28T06:12:14.704Z,98865.66
2022-11-28T06:14:41.535Z,98866.47
2022-11-28T06:17:08.610Z,98865.56
2022-11-28T06:19:35.461Z,98864.63
2022-11-28T06:22:02.711Z,98863.75
2022-11-28T06:24:29.619Z,98858.50
2022-11-28T06:26:56.906Z,98862.81
2022-11-28T06:29:23.730Z,98861.94
2022-11-28T06:31:50.954Z,98861.97
2022-11-28T06:34:17.936Z,98860.19
2022-11-28T06:36:45.318Z,98857.63
2022-11-28T06:39:15.544Z,98854.97
2022-11-28T06:41:43.586Z,98856.72
2022-11-28T06:44:17.736Z,98853.19
2022-11-28T06:46:45.307Z,98849.72
2022-11-28T06:49:13.554Z,98847.13
2022-11-28T06:51:42.629Z,98848.88
2022-11-28T06:54:10.066Z,98847.97
2022-11-28T06:56:39.854Z,98850.47
2022-11-28T06:59:07.214Z,98851.28
2022-11-28T07:01:34.601Z,98857.44
2022-11-28T07:04:02.180Z,98859.03
2022-11-28T07:06:29.518Z,98861.59
2022-11-28T07:08:58.740Z,98857.19
2022-11-28T07:11:30.891Z,98865.88
2022-11-28T07:14:01.706Z,98860.59
2022-11-28T07:16:32.547Z,98864.91
2022-11-28T07:19:00.056Z,98864.03
2022-11-28T07:21:29.452Z,98866.63
2022-11-28T07:23:59.318Z,98860.50
2022-11-28T07:26:26.973Z,98855.31
2022-11-28T07:28:56.041Z,98845.72
2022-11-28T07:31:32.029Z,98849.16
2022-11-28T07:34:03.299Z,98848.22
2022-11-28T07:36:31.566Z,98844.72
2022-11-28T07:39:01.232Z,98845.56
2022-11-28T07:41:29.389Z,98844.66
2022-11-28T07:44:02.457Z,98840.28
2022-11-28T07:46:32.154Z,98842.03
2022-11-28T07:48:59.848Z,98836.78
2022-11-28T07:51:33.478Z,98834.13
2022-11-28T07:54:02.907Z,98837.66
2022-11-28T07:57:04.571Z,98839.44
2022-11-28T07:59:22.516Z,98835.91
2022-11-28T08:01:50.196Z,98832.38
2022-11-28T08:04:17.279Z,98823.66
2022-11-28T08:06:44.807Z,98827.97
2022-11-28T08:09:12.225Z,98833.16
2022-11-28T08:11:40.520Z,98831.44
2022-11-28T08:14:07.395Z,98835.78
2022-11-28T08:16:34.984Z,98831.34
2022-11-28T08:19:02.777Z,98825.22
2022-11-28T08:21:33.723Z,98824.38
2022-11-28T08:24:02.694Z,98813.03
2022-11-28T08:26:32.492Z,98817.31
2022-11-28T08:29:02.093Z,98815.50
2022-11-28T08:31:37.432Z,98812.91
2022-11-28T08:34:09.662Z,98803.31
2022-11-28T08:36:37.834Z,98803.31
2022-11-28T08:41:59.940Z,98808.50
2022-11-28T08:44:30.280Z,98800.59
2022-11-28T08:46:57.979Z,98790.94
2022-11-28T08:49:24.851Z,98792.59
2022-11-28T08:51:52.060Z,98793.47
2022-11-28T08:54:18.866Z,98800.56
2022-11-28T08:56:48.593Z,98783.97
2022-11-28T08:59:16.024Z,98790.91
2022-11-28T09:01:43.315Z,98785.59
2022-11-28T09:04:10.419Z,98783.75
2022-11-28T09:06:41.119Z,98781.97
2022-11-28T09:09:09.129Z,98781.00
2022-11-28T09:11:36.946Z,98786.22
2022-11-28T09:14:03.852Z,98780.94
2022-11-28T09:16:31.391Z,98780.91
2022-11-28T09:18:59.655Z,98783.53
2022-11-28T09:21:27.166Z,98779.94
2022-11-28T09:23:56.648Z,98771.22
2022-11-28T09:26:25.488Z,98773.78
2022-11-28T09:28:53.903Z,98778.91
2022-11-28T09:31:22.776Z,98774.44
2022-11-28T09:33:50.401Z,98770.03
2022-11-28T09:36:21.629Z,98775.38
2022-11-28T09:38:48.793Z,98769.25
2022-11-28T09:41:44.284Z,98762.25
2022-11-28T09:44:38.827Z,98753.56
2022-11-28T09:47:18.821Z,98744.72
2022-11-28T09:50:15.412Z,98744.63
2022-11-28T09:53:23.208Z,98741.94
2022-11-28T09:55:55.954Z,98737.66
2022-11-28T09:58:53.919Z,98740.13
2022-11-28T10:01:42.287Z,98749.56
2022-11-28T10:04:21.522Z,98745.16
2022-11-28T10:07:19.651Z,98755.59
2022-11-28T10:10:02.833Z,98750.28
2022-11-28T10:13:03.928Z,98746.03
2022-11-28T10:16:07.702Z,98743.41
2022-11-28T10:18:47.857Z,98740.69
2022-11-28T10:21:31.358Z,98730.16
2022-11-28T10:24:05.094Z,98728.47
2022-11-28T10:26:38.347Z,98726.59
2022-11-28T10:29:29.735Z,98729.03
2022-11-28T10:32:04.805Z,98733.19
2022-11-28T10:34:53.293Z,98728.78
2022-11-28T10:37:31.160Z,98727.09
2022-11-28T10:40:54.471Z,98732.22
2022-11-28T10:43:33.499Z,98731.41
2022-11-28T10:46:57.510Z,98730.50
2022-11-28T10:50:04.682Z,98726.97
2022-11-28T10:52:47.804Z,98719.06
2022-11-28T10:56:08.433Z,98717.38
2022-11-28T10:59:04.463Z,98715.53
2022-11-28T11:01:43.737Z,98715.44
2022-11-28T11:04:26.682Z,98715.53
2022-11-28T11:07:21.729Z,98718.97
2022-11-28T11:09:52.200Z,98717.19
2022-11-28T11:12:32.336Z,98721.50
2022-11-28T11:14:59.236Z,98711.81
2022-11-28T11:17:37.966Z,98720.56
2022-11-28T11:20:32.236Z,98718.81
2022-11-28T11:23:22.008Z,98710.13
2022-11-28T11:25:55.322Z,98709.13
2022-11-28T11:28:28.197Z,98703.91
2022-11-28T11:31:05.878Z,98703.78
2022-11-28T11:33:38.269Z,98691.47
2022-11-28T11:36:29.243Z,98691.44
2022-11-28T11:39:15.874Z,98694.94
2022-11-28T11:42:09.506Z,98694.03
2022-11-28T11:44:38.641Z,98691.47
2022-11-28T11:47:08.016Z,98685.34
2022-11-28T11:49:44.068Z,98683.50
2022-11-28T11:52:28.064Z,98675.63
2022-11-28T11:54:58.312Z,98679.97
2022-11-28T11:57:38.034Z,98671.22
2022-11-28T12:00:14.927Z,98675.47
2022-11-28T12:02:57.083Z,98691.13
2022-11-28T12:06:12.802Z,98689.47
2022-11-28T12:08:45.027Z,98683.44
2022-11-28T12:11:34.165Z,98681.66
2022-11-28T12:14:27.489Z,98679.72
2022-11-28T12:17:57.141Z,98676.94
2022-11-28T12:20:58.517Z,98676.94
2022-11-28T12:23:52.959Z,98672.53
2022-11-28T12:26:41.835Z,98660.28
2022-11-28T12:29:27.725Z,98661.28
2022-11-28T12:32:26.039Z,98659.44
2022-11-28T12:35:30.035Z,98665.44
2022-11-28T12:38:44.642Z,98663.75
2022-11-28T12:41:30.702Z,98665.56
2022-11-28T12:44:28.220Z,98665.56
2022-11-28T12:47:06.371Z,98666.38
2022-11-28T12:50:18.085Z,98662.06
2022-11-28T12:53:13.030Z,98661.06
2022-11-28T12:56:07.015Z,98666.22
2022-11-28T12:58:55.209Z,98667.00
2022-11-28T13:02:06.685Z,98660.00
2022-11-28T13:04:56.685Z,98650.53
2022-11-28T13:07:48.817Z,98650.66
2022-11-28T13:10:39.360Z,98654.28
2022-11-28T13:13:39.860Z,98653.28
2022-11-28T13:16:33.648Z,98645.78
2022-11-28T13:19:07.032Z,98648.28
2022-11-28T13:21:59.898Z,98648.25
2022-11-28T13:24:42.456Z,98644.69
2022-11-28T13:27:33.314Z,98635.97
2022-11-28T13:30:24.445Z,98625.44
2022-11-28T13:33:07.543Z,98627.94
2022-11-28T13:35:35.401Z,98628.88
2022-11-28T13:38:50.495Z,98634.03
2022-11-28T13:42:21.445Z,98633.94
2022-11-28T13:44:50.340Z,98632.13
2022-11-28T13:47:23.050Z,98629.50
2022-11-28T13:49:50.872Z,98633.78
2022-11-28T13:52:17.714Z,98630.38
2022-11-28T13:54:50.837Z,98631.19
2022-11-28T13:57:30.402Z,98628.53
2022-11-28T14:00:19.591Z,98623.41
2022-11-28T14:03:00.108Z,98630.34
2022-11-28T14:05:41.672Z,98630.31
2022-11-28T14:08:28.058Z,98632.00
2022-11-28T14:11:33.452Z,98626.84
2022-11-28T14:14:45.696Z,98625.91
2022-11-28T14:17:28.262Z,98632.16
2022-11-28T14:20:05.917Z,98634.66
2022-11-28T14:23:09.035Z,98636.34
2022-11-28T14:25:49.678Z,98639.00
2022-11-28T14:28:27.318Z,98645.09
2022-11-28T14:31:32.107Z,98645.19
2022-11-28T14:34:22.130Z,98646.88
2022-11-28T14:37:21.286Z,98638.94
2022-11-28T14:39:53.168Z,98643.38
2022-11-28T14:45:44.954Z,98648.59
2022-11-28T14:48:23.856Z,98653.88
2022-11-28T14:51:00.641Z,98647.84
2022-11-28T14:53:34.810Z,98650.25
2022-11-28T14:56:25.846Z,98656.31
2022-11-28T14:59:00.218Z,98664.13
2022-11-28T15:02:13.783Z,98660.50
2022-11-28T15:04:54.854Z,98663.09
2022-11-28T15:08:16.030Z,98660.47
2022-11-28T15:11:08.453Z,98658.72
2022-11-28T15:14:05.986Z,98666.50
2022-11-28T15:16:35.339Z,98670.13
2022-11-28T15:19:45.192Z,98672.75
2022-11-28T15:22:41.763Z,98670.38
2022-11-28T15:25:21.290Z,98669.44
2022-11-28T15:27:49.100Z,98665.91
2022-11-28T15:30:26.758Z,98670.56
2022-11-28T15:33:00.942Z,98668.75
2022-11-28T15:35:29.150Z,98662.56
2022-11-28T15:37:58.494Z,98666.84
2022-11-28T15:40:37.467Z,98670.31
2022-11-28T15:43:12.486Z,98669.53
2022-11-28T15:45:42.405Z,98666.84
2022-11-28T15:48:39.864Z,98662.50
2022-11-28T15:51:09.518Z,98659.81
2022-11-28T15:53:42.438Z,98673.66
2022-11-28T15:56:15.623Z,98666.69
2022-11-28T15:58:48.961Z,98666.59
2022-11-28T16:01:26.099Z,98672.88
2022-11-28T16:04:05.241Z,98671.09
2022-11-28T16:06:39.380Z,98665.06
2022-11-28T16:09:20.077Z,98664.16
2022-11-28T16:11:53.096Z,98664.16
2022-11-28T16:14:37.608Z,98658.88
2022-11-28T16:17:20.619Z,98657.06
2022-11-28T16:19:52.878Z,98662.34
2022-11-28T16:22:27.495Z,98658.88
2022-11-28T16:24:56.102Z,98645.03
2022-11-28T16:27:38.177Z,98651.84
2022-11-28T16:30:48.041Z,98651.91
2022-11-28T16:33:43.663Z,98657.06
2022-11-28T16:36:37.719Z,98660.50
2022-11-28T16:39:15.741Z,98658.69
2022-11-28T16:41:52.230Z,98660.47
2022-11-28T16:44:23.813Z,98662.41
2022-11-28T16:46:58.923Z,98662.25
2022-11-28T16:50:14.069Z,98657.84
2022-11-28T16:52:54.897Z,98663.09
2022-11-28T16:55:41.980Z,98661.28
2022-11-28T16:58:21.694Z,98656.06
2022-11-28T17:01:02.364Z,98654.50
2022-11-28T17:04:02.713Z,98652.81
2022-11-28T17:06:37.613Z,98654.53
2022-11-28T17:09:12.213Z,98660.00
2022-11-28T17:11:46.405Z,98652.06
2022-11-28T17:14:14.693Z,98653.94
2022-11-28T17:16:43.353Z,98645.13
2022-11-28T17:19:10.390Z,98651.25
2022-11-28T17:21:43.654Z,98650.53
2022-11-28T17:24:33.968Z,98649.72
2022-11-28T17:27:02.174Z,98648.72
2022-11-28T17:29:30.048Z,98655.66
2022-11-28T17:31:59.001Z,98651.25
2022-11-28T17:34:32.712Z,98656.53
2022-11-28T17:37:03.058Z,98651.31
2022-11-28T17:39:30.274Z,98659.03
2022-11-28T17:41:59.189Z,98651.22
2022-11-28T17:44:29.349Z,98657.34
2022-11-28T17:46:58.636Z,98659.00
2022-11-28T17:49:25.637Z,98658.09
2022-11-28T17:51:55.257Z,98658.19
2022-11-28T17:54:25.048Z,98645.97
2022-11-28T17:56:54.059Z,98657.31
2022-11-28T17:59:24.278Z,98660.72
2022-11-28T18:01:51.679Z,98657.16
2022-11-28T18:04:19.501Z,98654.56
2022-11-28T18:06:47.821Z,98642.47
2022-11-28T18:09:46.534Z,98640.69
2022-11-28T18:12:27.192Z,98636.34
2022-11-28T18:14:54.571Z,98630.31
2022-11-28T18:17:21.765Z,98636.38
2022-11-28T18:19:52.027Z,98625.91
2022-11-28T18:22:22.012Z,98625.09
2022-11-28T18:24:48.989Z,98625.91
2022-11-28T18:27:16.293Z,98639.91
2022-11-28T18:29:43.773Z,98630.41
2022-11-28T18:32:11.439Z,98630.31
2022-11-28T18:34:39.890Z,98636.50
2022-11-28T18:37:07.345Z,98639.97
2022-11-28T18:39:34.959Z,98633.97
2022-11-28T18:42:02.246Z,98637.34
2022-11-28T18:44:29.314Z,98642.47
2022-11-28T18:46:56.443Z,98642.59
2022-11-28T18:49:23.456Z,98634.69
2022-11-28T18:51:51.380Z,98644.41
2022-11-28T18:54:21.445Z,98646.91
2022-11-28T18:56:49.498Z,98641.75
2022-11-28T18:59:16.403Z,98647.78
2022-11-28T19:01:43.612Z,98651.31
2022-11-28T19:04:13.387Z,98652.22
2022-11-28T19:06:42.917Z,98649.53
2022-11-28T19:09:14.730Z,98645.97
2022-11-28T19:11:44.365Z,98647.72
2022-11-28T19:14:18.047Z,98647.72
2022-11-28T19:16:47.104Z,98644.22
2022-11-28T19:19:17.214Z,98646.78
2022-11-28T19:21:44.984Z,98642.47
2022-11-28T19:24:12.963Z,98641.50
2022-11-28T19:26:40.669Z,98642.38
2022-11-28T19:29:08.154Z,98639.78
2022-11-28T19:31:37.505Z,98634.50
2022-11-28T19:34:11.949Z,98630.19
2022-11-28T19:36:49.219Z,98629.25
2022-11-28T19:39:22.663Z,98636.16
2022-11-28T19:41:52.730Z,98634.34
2022-11-28T19:44:24.646Z,98635.16
2022-11-28T19:46:52.891Z,98636.06
2022-11-28T19:49:23.827Z,98638.66
2022-11-28T19:51:54.404Z,98632.53
2022-11-28T19:54:21.783Z,98629.97
2022-11-28T19:56:59.771Z,98647.47
2022-11-28T19:59:27.685Z,98636.22
2022-11-28T20:01:54.949Z,98638.03
2022-11-28T20:04:22.531Z,98644.09
2022-11-28T20:06:49.696Z,98644.00
2022-11-28T20:09:16.541Z,98649.25
2022-11-28T20:11:45.087Z,98650.94
2022-11-28T20:14:19.300Z,98649.22
2022-11-28T20:16:47.307Z,98653.72
2022-11-28T20:19:15.075Z,98658.28
2022-11-28T20:21:42.490Z,98658.25
2022-11-28T20:24:10.756Z,98659.97
2022-11-28T20:26:41.703Z,98659.13
2022-11-28T20:29:12.277Z,98661.72
2022-11-28T20:31:45.348Z,98661.88
2022-11-28T20:34:17.696Z,98664.44
2022-11-28T20:36:45.337Z,98664.44
2022-11-28T20:39:13.464Z,98660.91
2022-11-28T20:41:40.712Z,98657.31
2022-11-28T20:44:08.282Z,98667.75
2022-11-28T20:46:35.819Z,98670.38
2022-11-28T20:49:07.038Z,98676.44
2022-11-28T20:51:35.883Z,98679.16
2022-11-28T20:54:05.585Z,98674.03
2022-11-28T20:57:04.959Z,98674.84
2022-11-28T20:59:26.508Z,98668.75
2022-11-28T21:01:53.975Z,98681.78
2022-11-28T21:04:20.960Z,98673.84
2022-11-28T21:06:49.432Z,98668.53
2022-11-28T21:09:18.507Z,98672.91
2022-11-28T21:12:02.842Z,98672.97
2022-11-28T21:14:29.752Z,98678.16
2022-11-28T21:16:58.589Z,98682.47
2022-11-28T21:19:25.919Z,98675.47
2022-11-28T21:21:53.229Z,98676.34
2022-11-28T21:24:20.185Z,98674.53
2022-11-28T21:26:53.560Z,98672.91
2022-11-28T21:29:23.330Z,98671.19
2022-11-28T21:31:51.081Z,98669.44
2022-11-28T21:34:19.539Z,98669.53
2022-11-28T21:36:47.073Z,98664.25
2022-11-28T21:39:18.781Z,98663.44
2022-11-28T21:41:46.411Z,98666.94
2022-11-28T21:44:13.293Z,98662.59
2022-11-28T21:46:40.580Z,98660.97
2022-11-28T21:49:07.803Z,98660.09
2022-11-28T21:51:35.143Z,98648.72
2022-11-28T21:54:02.810Z,98653.13
2022-11-28T21:56:30.383Z,98652.22
2022-11-28T21:58:57.314Z,98653.97
2022-11-28T22:01:24.548Z,98655.72
2022-11-28T22:03:51.576Z,98661.06
2022-11-28T22:06:24.440Z,98655.91
2022-11-28T22:08:53.665Z,98660.25
2022-11-28T22:11:22.246Z,98667.22
2022-11-28T22:13:50.083Z,98665.44
2022-11-28T22:16:19.891Z,98659.41
2022-11-28T22:18:48.975Z,98667.25
2022-11-28T22:24:04.677Z,98673.34
2022-11-28T22:26:32.451Z,98671.56
2022-11-28T22:28:59.503Z,98666.38
2022-11-28T22:31:26.885Z,98661.22
2022-11-28T22:33:53.734Z,98659.50
2022-11-28T22:36:22.584Z,98658.66
2022-11-28T22:38:55.838Z,98664.78
2022-11-28T22:41:28.820Z,98659.47
2022-11-28T22:44:00.301Z,98658.50
2022-11-28T22:46:28.570Z,98661.91
2022-11-28T22:48:56.162Z,98662.72
2022-11-28T22:51:26.054Z,98662.63
2022-11-28T22:53:58.973Z,98667.00
2022-11-28T22:56:27.394Z,98666.13
2022-11-28T22:58:54.859Z,98665.38
2022-11-28T23:01:29.213Z,98660.97
2022-11-28T23:30:46.533Z,98665.69
2022-11-28T23:33:17.727Z,98667.44
2022-11-28T23:35:45.602Z,98669.34
2022-11-28T23:38:15.719Z,98665.81
2022-11-28T23:40:42.838Z,98672.81
2022-11-28T23:43:10.234Z,98670.31
2022-11-28T23:45:37.701Z,98671.38
2022-11-28T23:48:05.450Z,98671.50
2022-11-28T23:50:34.587Z,98664.66
2022-11-28T23:53:01.726Z,98669.06
2022-11-28T23:55:28.555Z,98665.41
2022-11-28T23:57:55.886Z,98670.63
